sensor_id;sensor_type;location;lat;lon;timestamp;temperature;humidity
38860;DHT22;24609;48.316;16.174;2022-12-13T00:01:47;-5.40;99.90
38860;DHT22;24609;48.316;16.174;2022-12-13T00:04:15;-5.50;99.90
38860;DHT22;24609;48.316;16.174;2022-12-13T00:06:41;-5.50;99.90
38860;DHT22;24609;48.316;16.174;2022-12-13T00:09:07;-5.50;99.90
38860;DHT22;24609;48.316;16.174;2022-12-13T00:11:32;-5.60;99.90
38860;DHT22;24609;48.316;16.174;2022-12-13T00:13:58;-5.70;99.90
38860;DHT22;24609;48.316;16.174;2022-12-13T00:16:25;-5.70;99.90
38860;DHT22;24609;48.316;16.174;2022-12-13T00:18:53;-5.80;99.90
38860;DHT22;24609;48.316;16.174;2022-12-13T00:21:22;-5.90;99.90
38860;DHT22;24609;48.316;16.174;2022-12-13T00:23:49;-5.90;99.90
38860;DHT22;24609;48.316;16.174;2022-12-13T00:26:20;-6.00;99.90
38860;DHT22;24609;48.316;16.174;2022-12-13T00:28:46;-5.90;99.90
38860;DHT22;24609;48.316;16.174;2022-12-13T00:31:14;-5.80;99.90
38860;DHT22;24609;48.316;16.174;2022-12-13T00:33:39;-5.80;99.90
38860;DHT22;24609;48.316;16.174;2022-12-13T00:36:06;-5.80;99.90
38860;DHT22;24609;48.316;16.174;2022-12-13T00:38:33;-5.80;99.90
38860;DHT22;24609;48.316;16.174;2022-12-13T00:40:58;-5.80;99.90
38860;DHT22;24609;48.316;16.174;2022-12-13T00:43:24;-5.80;99.90
38860;DHT22;24609;48.316;16.174;2022-12-13T00:45:50;-6.00;99.90
38860;DHT22;24609;48.316;16.174;2022-12-13T00:48:15;-6.00;99.90
38860;DHT22;24609;48.316;16.174;2022-12-13T00:50:41;-6.10;99.90
38860;DHT22;24609;48.316;16.174;2022-12-13T00:53:08;-6.10;99.90
38860;DHT22;24609;48.316;16.174;2022-12-13T00:55:38;-6.20;99.90
38860;DHT22;24609;48.316;16.174;2022-12-13T00:58:04;-6.30;99.90
38860;DHT22;24609;48.316;16.174;2022-12-13T01:00:29;-6.30;99.90
38860;DHT22;24609;48.316;16.174;2022-12-13T01:02:55;-6.40;99.90
38860;DHT22;24609;48.316;16.174;2022-12-13T01:05:21;-6.40;99.90
38860;DHT22;24609;48.316;16.174;2022-12-13T01:07:46;-6.40;99.90
38860;DHT22;24609;48.316;16.174;2022-12-13T01:10:12;-6.50;99.90
38860;DHT22;24609;48.316;16.174;2022-12-13T01:12:38;-6.50;99.90
38860;DHT22;24609;48.316;16.174;2022-12-13T01:15:05;-6.30;99.90
38860;DHT22;24609;48.316;16.174;2022-12-13T01:17:33;-6.30;99.90
38860;DHT22;24609;48.316;16.174;2022-12-13T01:19:59;-6.40;99.90
38860;DHT22;24609;48.316;16.174;2022-12-13T01:22:24;-6.50;99.90
38860;DHT22;24609;48.316;16.174;2022-12-13T01:24:50;-6.70;99.90
38860;DHT22;24609;48.316;16.174;2022-12-13T01:27:16;-6.80;99.90
38860;DHT22;24609;48.316;16.174;2022-12-13T01:29:41;-6.80;99.90
38860;DHT22;24609;48.316;16.174;2022-12-13T01:32:07;-6.90;99.90
38860;DHT22;24609;48.316;16.174;2022-12-13T01:34:32;-7.00;99.90
38860;DHT22;24609;48.316;16.174;2022-12-13T01:36:58;-6.90;99.90
38860;DHT22;24609;48.316;16.174;2022-12-13T01:39:24;-6.90;99.90
38860;DHT22;24609;48.316;16.174;2022-12-13T01:41:52;-6.80;99.90
38860;DHT22;24609;48.316;16.174;2022-12-13T01:49:59;-7.00;99.90
38860;DHT22;24609;48.316;16.174;2022-12-13T01:52:25;-7.00;99.90
38860;DHT22;24609;48.316;16.174;2022-12-13T01:54:54;-6.90;99.90
38860;DHT22;24609;48.316;16.174;2022-12-13T01:57:21;-7.00;99.90
38860;DHT22;24609;48.316;16.174;2022-12-13T01:59:48;-7.00;99.90
38860;DHT22;24609;48.316;16.174;2022-12-13T02:02:15;-7.00;99.90
38860;DHT22;24609;48.316;16.174;2022-12-13T02:07:25;-7.00;99.90
38860;DHT22;24609;48.316;16.174;2022-12-13T02:09:56;-7.00;99.90
38860;DHT22;24609;48.316;16.174;2022-12-13T02:12:29;-7.00;99.90
38860;DHT22;24609;48.316;16.174;2022-12-13T02:14:57;-7.10;99.90
38860;DHT22;24609;48.316;16.174;2022-12-13T02:23:07;-7.00;99.90
38860;DHT22;24609;48.316;16.174;2022-12-13T02:30:41;-7.30;99.90
38860;DHT22;24609;48.316;16.174;2022-12-13T02:36:07;-7.50;99.90
38860;DHT22;24609;48.316;16.174;2022-12-13T02:38:53;-7.50;99.90
38860;DHT22;24609;48.316;16.174;2022-12-13T02:46:54;-7.50;99.90
38860;DHT22;24609;48.316;16.174;2022-12-13T02:49:22;-7.60;99.90
38860;DHT22;24609;48.316;16.174;2022-12-13T02:51:49;-7.60;99.90
38860;DHT22;24609;48.316;16.174;2022-12-13T02:54:16;-7.70;99.90
38860;DHT22;24609;48.316;16.174;2022-12-13T02:56:51;-7.80;99.90
38860;DHT22;24609;48.316;16.174;2022-12-13T02:59:17;-7.90;99.90
38860;DHT22;24609;48.316;16.174;2022-12-13T03:07:32;-8.00;99.90
38860;DHT22;24609;48.316;16.174;2022-12-13T03:10:14;-7.90;99.90
38860;DHT22;24609;48.316;16.174;2022-12-13T03:12:53;-7.80;99.90
38860;DHT22;24609;48.316;16.174;2022-12-13T03:18:21;-7.80;99.90
38860;DHT22;24609;48.316;16.174;2022-12-13T03:20:55;-7.90;99.90
38860;DHT22;24609;48.316;16.174;2022-12-13T03:23:22;-8.00;99.90
38860;DHT22;24609;48.316;16.174;2022-12-13T03:25:50;-8.10;99.90
38860;DHT22;24609;48.316;16.174;2022-12-13T03:28:16;-8.10;99.90
38860;DHT22;24609;48.316;16.174;2022-12-13T03:30:42;-8.10;99.90
38860;DHT22;24609;48.316;16.174;2022-12-13T03:33:08;-8.10;99.90
38860;DHT22;24609;48.316;16.174;2022-12-13T03:35:34;-8.20;99.90
38860;DHT22;24609;48.316;16.174;2022-12-13T03:37:59;-8.30;99.90
38860;DHT22;24609;48.316;16.174;2022-12-13T03:40:27;-8.30;99.90
38860;DHT22;24609;48.316;16.174;2022-12-13T03:42:54;-8.40;99.90
38860;DHT22;24609;48.316;16.174;2022-12-13T03:45:20;-8.50;99.90
38860;DHT22;24609;48.316;16.174;2022-12-13T03:47:45;-8.60;99.90
38860;DHT22;24609;48.316;16.174;2022-12-13T03:50:11;-8.60;99.90
38860;DHT22;24609;48.316;16.174;2022-12-13T03:52:37;-8.50;99.90
38860;DHT22;24609;48.316;16.174;2022-12-13T03:55:03;-8.40;99.90
38860;DHT22;24609;48.316;16.174;2022-12-13T03:57:28;-8.40;99.90
38860;DHT22;24609;48.316;16.174;2022-12-13T03:59:54;-8.50;99.90
38860;DHT22;24609;48.316;16.174;2022-12-13T04:02:20;-8.50;99.90
38860;DHT22;24609;48.316;16.174;2022-12-13T04:04:46;-8.60;99.90
38860;DHT22;24609;48.316;16.174;2022-12-13T04:07:11;-8.60;99.90
38860;DHT22;24609;48.316;16.174;2022-12-13T04:09:37;-8.60;99.90
38860;DHT22;24609;48.316;16.174;2022-12-13T04:12:03;-8.70;99.90
38860;DHT22;24609;48.316;16.174;2022-12-13T04:14:47;-8.60;99.90
38860;DHT22;24609;48.316;16.174;2022-12-13T04:17:12;-8.60;99.90
38860;DHT22;24609;48.316;16.174;2022-12-13T04:19:38;-8.70;99.90
38860;DHT22;24609;48.316;16.174;2022-12-13T04:22:04;-8.70;99.90
38860;DHT22;24609;48.316;16.174;2022-12-13T04:24:30;-8.80;99.90
38860;DHT22;24609;48.316;16.174;2022-12-13T04:26:55;-8.80;99.90
38860;DHT22;24609;48.316;16.174;2022-12-13T04:29:21;-8.90;99.90
38860;DHT22;24609;48.316;16.174;2022-12-13T04:31:47;-8.80;99.90
38860;DHT22;24609;48.316;16.174;2022-12-13T04:34:12;-8.80;99.90
38860;DHT22;24609;48.316;16.174;2022-12-13T04:36:38;-8.90;99.90
38860;DHT22;24609;48.316;16.174;2022-12-13T04:39:04;-9.00;99.90
38860;DHT22;24609;48.316;16.174;2022-12-13T04:41:35;-9.00;99.90
38860;DHT22;24609;48.316;16.174;2022-12-13T04:44:02;-9.00;99.90
38860;DHT22;24609;48.316;16.174;2022-12-13T04:46:28;-9.00;99.90
38860;DHT22;24609;48.316;16.174;2022-12-13T04:48:53;-9.00;99.90
38860;DHT22;24609;48.316;16.174;2022-12-13T04:51:19;-9.00;99.90
38860;DHT22;24609;48.316;16.174;2022-12-13T04:53:45;-9.00;99.90
38860;DHT22;24609;48.316;16.174;2022-12-13T04:56:10;-9.00;99.90
38860;DHT22;24609;48.316;16.174;2022-12-13T04:58:36;-9.00;99.90
38860;DHT22;24609;48.316;16.174;2022-12-13T05:01:06;-9.10;99.90
38860;DHT22;24609;48.316;16.174;2022-12-13T05:03:32;-9.10;99.90
38860;DHT22;24609;48.316;16.174;2022-12-13T05:05:58;-9.10;99.90
38860;DHT22;24609;48.316;16.174;2022-12-13T05:08:23;-9.10;99.90
38860;DHT22;24609;48.316;16.174;2022-12-13T05:10:49;-9.10;99.90
38860;DHT22;24609;48.316;16.174;2022-12-13T05:13:15;-9.10;99.90
38860;DHT22;24609;48.316;16.174;2022-12-13T05:15:40;-9.20;99.90
38860;DHT22;24609;48.316;16.174;2022-12-13T05:18:07;-9.30;99.90
38860;DHT22;24609;48.316;16.174;2022-12-13T05:20:37;-9.30;99.90
38860;DHT22;24609;48.316;16.174;2022-12-13T05:23:03;-9.40;99.90
38860;DHT22;24609;48.316;16.174;2022-12-13T05:25:29;-9.30;99.90
38860;DHT22;24609;48.316;16.174;2022-12-13T05:27:55;-9.30;99.90
38860;DHT22;24609;48.316;16.174;2022-12-13T05:30:21;-9.40;99.90
38860;DHT22;24609;48.316;16.174;2022-12-13T05:32:47;-9.40;99.90
38860;DHT22;24609;48.316;16.174;2022-12-13T05:35:14;-9.40;99.90
38860;DHT22;24609;48.316;16.174;2022-12-13T05:37:40;-9.40;99.90
38860;DHT22;24609;48.316;16.174;2022-12-13T05:40:06;-9.40;99.90
38860;DHT22;24609;48.316;16.174;2022-12-13T05:42:36;-9.40;99.90
38860;DHT22;24609;48.316;16.174;2022-12-13T05:45:03;-9.50;99.90
38860;DHT22;24609;48.316;16.174;2022-12-13T05:47:29;-9.50;99.90
38860;DHT22;24609;48.316;16.174;2022-12-13T05:49:54;-9.50;99.90
38860;DHT22;24609;48.316;16.174;2022-12-13T05:52:21;-9.60;99.90
38860;DHT22;24609;48.316;16.174;2022-12-13T05:54:47;-9.60;99.90
38860;DHT22;24609;48.316;16.174;2022-12-13T05:57:13;-9.60;99.90
38860;DHT22;24609;48.316;16.174;2022-12-13T05:59:38;-9.60;99.90
38860;DHT22;24609;48.316;16.174;2022-12-13T06:02:04;-9.60;99.90
38860;DHT22;24609;48.316;16.174;2022-12-13T06:04:30;-9.60;99.90
38860;DHT22;24609;48.316;16.174;2022-12-13T06:06:56;-9.60;99.90
38860;DHT22;24609;48.316;16.174;2022-12-13T06:09:21;-9.60;99.90
38860;DHT22;24609;48.316;16.174;2022-12-13T06:11:48;-9.60;99.90
38860;DHT22;24609;48.316;16.174;2022-12-13T06:14:14;-9.70;99.90
38860;DHT22;24609;48.316;16.174;2022-12-13T06:16:40;-9.60;99.90
38860;DHT22;24609;48.316;16.174;2022-12-13T06:19:06;-9.60;99.90
38860;DHT22;24609;48.316;16.174;2022-12-13T06:21:33;-9.60;99.90
38860;DHT22;24609;48.316;16.174;2022-12-13T06:23:58;-9.70;99.90
38860;DHT22;24609;48.316;16.174;2022-12-13T06:26:24;-9.70;99.90
38860;DHT22;24609;48.316;16.174;2022-12-13T06:28:50;-9.70;99.90
38860;DHT22;24609;48.316;16.174;2022-12-13T06:31:16;-9.70;99.90
38860;DHT22;24609;48.316;16.174;2022-12-13T06:33:41;-9.80;99.90
38860;DHT22;24609;48.316;16.174;2022-12-13T06:36:07;-9.80;99.90
38860;DHT22;24609;48.316;16.174;2022-12-13T06:38:33;-9.80;99.90
38860;DHT22;24609;48.316;16.174;2022-12-13T06:41:08;-9.70;99.90
38860;DHT22;24609;48.316;16.174;2022-12-13T06:43:34;-9.80;99.90
38860;DHT22;24609;48.316;16.174;2022-12-13T06:46:02;-9.80;99.90
38860;DHT22;24609;48.316;16.174;2022-12-13T06:48:28;-9.70;99.90
38860;DHT22;24609;48.316;16.174;2022-12-13T06:50:53;-9.70;99.90
38860;DHT22;24609;48.316;16.174;2022-12-13T06:53:19;-9.80;99.90
38860;DHT22;24609;48.316;16.174;2022-12-13T06:55:45;-9.70;99.90
38860;DHT22;24609;48.316;16.174;2022-12-13T06:58:11;-9.70;99.90
38860;DHT22;24609;48.316;16.174;2022-12-13T07:00:36;-9.60;99.90
38860;DHT22;24609;48.316;16.174;2022-12-13T07:03:02;-9.60;99.90
38860;DHT22;24609;48.316;16.174;2022-12-13T07:05:28;-9.50;99.90
38860;DHT22;24609;48.316;16.174;2022-12-13T07:07:53;-9.50;99.90
38860;DHT22;24609;48.316;16.174;2022-12-13T07:10:19;-9.50;99.90
38860;DHT22;24609;48.316;16.174;2022-12-13T07:12:45;-9.40;99.90
38860;DHT22;24609;48.316;16.174;2022-12-13T07:15:11;-9.40;99.90
38860;DHT22;24609;48.316;16.174;2022-12-13T07:17:37;-9.30;99.90
38860;DHT22;24609;48.316;16.174;2022-12-13T07:20:05;-9.30;99.90
38860;DHT22;24609;48.316;16.174;2022-12-13T07:22:34;-9.20;99.90
38860;DHT22;24609;48.316;16.174;2022-12-13T07:25:01;-9.20;99.90
38860;DHT22;24609;48.316;16.174;2022-12-13T07:27:27;-9.10;99.90
38860;DHT22;24609;48.316;16.174;2022-12-13T07:29:53;-9.10;99.90
38860;DHT22;24609;48.316;16.174;2022-12-13T07:32:19;-9.10;99.90
38860;DHT22;24609;48.316;16.174;2022-12-13T07:34:44;-9.10;99.90
38860;DHT22;24609;48.316;16.174;2022-12-13T07:37:10;-9.00;99.90
38860;DHT22;24609;48.316;16.174;2022-12-13T07:39:35;-8.90;99.90
38860;DHT22;24609;48.316;16.174;2022-12-13T07:42:01;-8.60;99.90
38860;DHT22;24609;48.316;16.174;2022-12-13T07:44:27;-8.10;99.90
38860;DHT22;24609;48.316;16.174;2022-12-13T07:46:52;-7.70;99.90
38860;DHT22;24609;48.316;16.174;2022-12-13T07:49:18;-7.80;99.90
38860;DHT22;24609;48.316;16.174;2022-12-13T07:51:44;-7.60;99.90
38860;DHT22;24609;48.316;16.174;2022-12-13T07:54:09;-7.20;99.90
38860;DHT22;24609;48.316;16.174;2022-12-13T07:56:35;-6.70;99.90
38860;DHT22;24609;48.316;16.174;2022-12-13T07:59:01;-6.50;1.00
38860;DHT22;24609;48.316;16.174;2022-12-13T08:01:26;-6.60;1.00
38860;DHT22;24609;48.316;16.174;2022-12-13T08:03:53;-6.60;99.90
38860;DHT22;24609;48.316;16.174;2022-12-13T08:06:19;-6.40;1.00
38860;DHT22;24609;48.316;16.174;2022-12-13T08:08:44;-5.70;1.00
38860;DHT22;24609;48.316;16.174;2022-12-13T08:11:12;-4.80;1.00
38860;DHT22;24609;48.316;16.174;2022-12-13T08:13:40;-4.00;1.00
38860;DHT22;24609;48.316;16.174;2022-12-13T08:16:08;-3.20;99.90
38860;DHT22;24609;48.316;16.174;2022-12-13T08:18:34;-2.30;1.00
38860;DHT22;24609;48.316;16.174;2022-12-13T08:21:02;-1.60;1.00
38860;DHT22;24609;48.316;16.174;2022-12-13T08:23:30;-3.00;1.00
38860;DHT22;24609;48.316;16.174;2022-12-13T08:25:56;-3.70;99.90
38860;DHT22;24609;48.316;16.174;2022-12-13T08:28:22;-3.40;99.90
38860;DHT22;24609;48.316;16.174;2022-12-13T08:30:48;-1.90;99.90
38860;DHT22;24609;48.316;16.174;2022-12-13T08:33:14;-0.40;99.90
38860;DHT22;24609;48.316;16.174;2022-12-13T08:35:40;0.70;1.00
38860;DHT22;24609;48.316;16.174;2022-12-13T08:38:06;1.50;99.90
38860;DHT22;24609;48.316;16.174;2022-12-13T08:40:32;2.20;25.00
38860;DHT22;24609;48.316;16.174;2022-12-13T08:42:57;2.50;1.00
38860;DHT22;24609;48.316;16.174;2022-12-13T08:45:23;2.80;1.00
38860;DHT22;24609;48.316;16.174;2022-12-13T08:47:49;2.60;99.90
38860;DHT22;24609;48.316;16.174;2022-12-13T08:50:15;2.10;99.90
38860;DHT22;24609;48.316;16.174;2022-12-13T08:52:40;0.70;1.00
38860;DHT22;24609;48.316;16.174;2022-12-13T08:55:13;0.70;1.00
38860;DHT22;24609;48.316;16.174;2022-12-13T08:57:41;1.70;1.00
38860;DHT22;24609;48.316;16.174;2022-12-13T09:00:09;1.20;1.00
38860;DHT22;24609;48.316;16.174;2022-12-13T09:02:36;2.30;1.00
38860;DHT22;24609;48.316;16.174;2022-12-13T09:05:02;2.90;99.90
38860;DHT22;24609;48.316;16.174;2022-12-13T09:07:28;3.80;99.90
38860;DHT22;24609;48.316;16.174;2022-12-13T09:09:53;4.20;99.90
38860;DHT22;24609;48.316;16.174;2022-12-13T09:12:19;4.20;99.90
38860;DHT22;24609;48.316;16.174;2022-12-13T09:14:45;2.60;99.90
38860;DHT22;24609;48.316;16.174;2022-12-13T09:17:13;2.30;99.90
38860;DHT22;24609;48.316;16.174;2022-12-13T09:19:39;3.20;99.90
38860;DHT22;24609;48.316;16.174;2022-12-13T09:22:05;4.20;99.90
38860;DHT22;24609;48.316;16.174;2022-12-13T09:24:31;4.30;99.90
38860;DHT22;24609;48.316;16.174;2022-12-13T09:26:57;4.60;99.90
38860;DHT22;24609;48.316;16.174;2022-12-13T09:29:22;4.80;99.90
38860;DHT22;24609;48.316;16.174;2022-12-13T09:31:48;4.90;99.90
38860;DHT22;24609;48.316;16.174;2022-12-13T09:34:14;5.20;99.90
38860;DHT22;24609;48.316;16.174;2022-12-13T09:36:39;5.50;99.90
38860;DHT22;24609;48.316;16.174;2022-12-13T09:39:06;6.10;99.90
38860;DHT22;24609;48.316;16.174;2022-12-13T09:41:41;6.20;93.10
38860;DHT22;24609;48.316;16.174;2022-12-13T09:46:48;7.10;1.00
38860;DHT22;24609;48.316;16.174;2022-12-13T09:49:37;7.20;1.00
38860;DHT22;24609;48.316;16.174;2022-12-13T09:52:05;7.00;1.00
38860;DHT22;24609;48.316;16.174;2022-12-13T09:54:32;7.00;1.00
38860;DHT22;24609;48.316;16.174;2022-12-13T09:56:58;7.10;1.00
38860;DHT22;24609;48.316;16.174;2022-12-13T09:59:29;7.40;1.00
38860;DHT22;24609;48.316;16.174;2022-12-13T10:02:01;7.70;1.00
38860;DHT22;24609;48.316;16.174;2022-12-13T10:04:27;8.00;1.00
38860;DHT22;24609;48.316;16.174;2022-12-13T10:06:53;7.70;1.00
38860;DHT22;24609;48.316;16.174;2022-12-13T10:09:20;7.30;99.90
38860;DHT22;24609;48.316;16.174;2022-12-13T10:11:51;7.30;99.90
38860;DHT22;24609;48.316;16.174;2022-12-13T10:14:28;7.30;99.90
38860;DHT22;24609;48.316;16.174;2022-12-13T10:16:59;7.40;99.90
38860;DHT22;24609;48.316;16.174;2022-12-13T10:19:33;7.40;99.90
38860;DHT22;24609;48.316;16.174;2022-12-13T10:22:01;7.40;99.90
38860;DHT22;24609;48.316;16.174;2022-12-13T10:25:14;7.00;99.90
38860;DHT22;24609;48.316;16.174;2022-12-13T10:27:16;6.80;99.90
38860;DHT22;24609;48.316;16.174;2022-12-13T10:32:21;7.20;99.90
38860;DHT22;24609;48.316;16.174;2022-12-13T10:34:47;7.20;99.90
38860;DHT22;24609;48.316;16.174;2022-12-13T10:39:48;8.70;99.90
38860;DHT22;24609;48.316;16.174;2022-12-13T10:42:16;8.60;99.90
38860;DHT22;24609;48.316;16.174;2022-12-13T10:44:42;8.90;99.90
38860;DHT22;24609;48.316;16.174;2022-12-13T10:47:24;8.10;99.90
38860;DHT22;24609;48.316;16.174;2022-12-13T10:49:57;6.90;99.90
38860;DHT22;24609;48.316;16.174;2022-12-13T10:52:30;7.10;99.90
38860;DHT22;24609;48.316;16.174;2022-12-13T10:55:05;8.40;99.90
38860;DHT22;24609;48.316;16.174;2022-12-13T10:57:32;9.20;99.90
38860;DHT22;24609;48.316;16.174;2022-12-13T10:59:58;8.70;99.90
38860;DHT22;24609;48.316;16.174;2022-12-13T11:02:35;6.60;99.90
38860;DHT22;24609;48.316;16.174;2022-12-13T11:07:46;2.60;99.90
38860;DHT22;24609;48.316;16.174;2022-12-13T11:12:42;1.50;1.00
38860;DHT22;24609;48.316;16.174;2022-12-13T11:15:21;1.50;1.00
38860;DHT22;24609;48.316;16.174;2022-12-13T11:17:53;2.20;1.00
38860;DHT22;24609;48.316;16.174;2022-12-13T11:20:26;5.00;1.00
38860;DHT22;24609;48.316;16.174;2022-12-13T11:23:06;6.40;99.90
38860;DHT22;24609;48.316;16.174;2022-12-13T11:25:41;7.80;99.90
38860;DHT22;24609;48.316;16.174;2022-12-13T11:31:07;4.20;99.90
38860;DHT22;24609;48.316;16.174;2022-12-13T11:41:52;6.90;99.90
38860;DHT22;24609;48.316;16.174;2022-12-13T11:46:58;1.80;99.90
38860;DHT22;24609;48.316;16.174;2022-12-13T11:49:41;0.90;1.00
38860;DHT22;24609;48.316;16.174;2022-12-13T11:52:35;0.40;1.00
38860;DHT22;24609;48.316;16.174;2022-12-13T11:55:13;0.20;69.20
38860;DHT22;24609;48.316;16.174;2022-12-13T11:58:03;0.10;99.90
38860;DHT22;24609;48.316;16.174;2022-12-13T12:00:38;-0.10;99.90
38860;DHT22;24609;48.316;16.174;2022-12-13T12:03:20;-0.10;99.90
38860;DHT22;24609;48.316;16.174;2022-12-13T12:08:37;-0.10;1.00
38860;DHT22;24609;48.316;16.174;2022-12-13T12:17:02;-0.30;1.00
38860;DHT22;24609;48.316;16.174;2022-12-13T12:19:38;-0.30;1.00
38860;DHT22;24609;48.316;16.174;2022-12-13T12:22:35;-0.30;99.90
38860;DHT22;24609;48.316;16.174;2022-12-13T12:25:26;-0.20;99.90
38860;DHT22;24609;48.316;16.174;2022-12-13T13:00:20;-0.40;99.90
38860;DHT22;24609;48.316;16.174;2022-12-13T13:08:12;-0.40;99.90
38860;DHT22;24609;48.316;16.174;2022-12-13T13:10:41;-0.40;99.90
38860;DHT22;24609;48.316;16.174;2022-12-13T13:13:31;-0.40;99.90
38860;DHT22;24609;48.316;16.174;2022-12-13T13:15:57;-0.30;99.90
38860;DHT22;24609;48.316;16.174;2022-12-13T13:18:48;-0.30;99.90
38860;DHT22;24609;48.316;16.174;2022-12-13T13:21:42;-0.30;99.90
38860;DHT22;24609;48.316;16.174;2022-12-13T13:24:12;-0.30;99.90
38860;DHT22;24609;48.316;16.174;2022-12-13T13:34:45;-0.40;95.00
38860;DHT22;24609;48.316;16.174;2022-12-13T13:42:28;-0.50;99.90
38860;DHT22;24609;48.316;16.174;2022-12-13T13:45:21;-0.50;59.40
38860;DHT22;24609;48.316;16.174;2022-12-13T13:48:09;-0.50;99.90
38860;DHT22;24609;48.316;16.174;2022-12-13T13:50:53;-0.50;99.90
38860;DHT22;24609;48.316;16.174;2022-12-13T13:53:50;-0.50;42.60
38860;DHT22;24609;48.316;16.174;2022-12-13T13:56:59;-0.50;1.00
38860;DHT22;24609;48.316;16.174;2022-12-13T14:05:08;-0.60;1.00
38860;DHT22;24609;48.316;16.174;2022-12-13T14:13:39;-0.70;1.00
38860;DHT22;24609;48.316;16.174;2022-12-13T14:22:05;-0.90;1.00
38860;DHT22;24609;48.316;16.174;2022-12-13T14:30:21;-1.10;48.70
38860;DHT22;24609;48.316;16.174;2022-12-13T14:32:48;-1.20;99.90
38860;DHT22;24609;48.316;16.174;2022-12-13T14:35:27;-1.30;99.90
38860;DHT22;24609;48.316;16.174;2022-12-13T14:38:04;-1.50;1.00
38860;DHT22;24609;48.316;16.174;2022-12-13T14:40:36;-1.50;99.90
38860;DHT22;24609;48.316;16.174;2022-12-13T14:43:02;-1.70;99.90
38860;DHT22;24609;48.316;16.174;2022-12-13T14:45:35;-1.80;1.00
38860;DHT22;24609;48.316;16.174;2022-12-13T14:48:04;-1.90;99.90
38860;DHT22;24609;48.316;16.174;2022-12-13T14:50:34;-1.90;99.90
38860;DHT22;24609;48.316;16.174;2022-12-13T14:53:01;-1.90;99.90
38860;DHT22;24609;48.316;16.174;2022-12-13T14:55:28;-2.00;1.00
38860;DHT22;24609;48.316;16.174;2022-12-13T14:57:57;-2.10;99.90
38860;DHT22;24609;48.316;16.174;2022-12-13T15:02:56;-2.20;1.00
38860;DHT22;24609;48.316;16.174;2022-12-13T15:06:00;-2.30;99.90
38860;DHT22;24609;48.316;16.174;2022-12-13T15:08:19;-2.40;31.70
38860;DHT22;24609;48.316;16.174;2022-12-13T15:10:48;-2.40;99.90
38860;DHT22;24609;48.316;16.174;2022-12-13T15:16:00;-2.30;33.70
38860;DHT22;24609;48.316;16.174;2022-12-13T15:18:28;-2.30;1.00
38860;DHT22;24609;48.316;16.174;2022-12-13T15:20:56;-2.30;99.90
38860;DHT22;24609;48.316;16.174;2022-12-13T15:23:36;-2.30;1.00
38860;DHT22;24609;48.316;16.174;2022-12-13T15:26:25;-2.40;99.90
38860;DHT22;24609;48.316;16.174;2022-12-13T15:28:59;-2.50;99.90
38860;DHT22;24609;48.316;16.174;2022-12-13T15:31:26;-2.50;99.90
38860;DHT22;24609;48.316;16.174;2022-12-13T15:33:52;-2.50;1.00
38860;DHT22;24609;48.316;16.174;2022-12-13T15:36:37;-2.50;91.80
38860;DHT22;24609;48.316;16.174;2022-12-13T15:39:03;-2.50;99.90
38860;DHT22;24609;48.316;16.174;2022-12-13T15:41:41;-2.60;99.90
38860;DHT22;24609;48.316;16.174;2022-12-13T15:44:30;-2.60;99.90
38860;DHT22;24609;48.316;16.174;2022-12-13T15:47:11;-2.70;1.00
38860;DHT22;24609;48.316;16.174;2022-12-13T15:49:38;-2.70;37.30
38860;DHT22;24609;48.316;16.174;2022-12-13T15:54:40;-2.90;99.90
38860;DHT22;24609;48.316;16.174;2022-12-13T15:57:22;-2.90;1.00
38860;DHT22;24609;48.316;16.174;2022-12-13T16:02:29;-3.10;99.90
38860;DHT22;24609;48.316;16.174;2022-12-13T16:05:04;-3.20;99.90
38860;DHT22;24609;48.316;16.174;2022-12-13T16:07:34;-3.30;99.90
38860;DHT22;24609;48.316;16.174;2022-12-13T16:10:03;-3.30;99.90
38860;DHT22;24609;48.316;16.174;2022-12-13T16:12:37;-3.30;99.90
38860;DHT22;24609;48.316;16.174;2022-12-13T16:15:28;-3.40;99.90
38860;DHT22;24609;48.316;16.174;2022-12-13T16:18:06;-3.50;99.90
38860;DHT22;24609;48.316;16.174;2022-12-13T16:20:32;-3.40;1.00
38860;DHT22;24609;48.316;16.174;2022-12-13T16:22:58;-3.30;99.90
38860;DHT22;24609;48.316;16.174;2022-12-13T16:25:23;-3.30;99.90
38860;DHT22;24609;48.316;16.174;2022-12-13T16:27:49;-3.50;99.90
38860;DHT22;24609;48.316;16.174;2022-12-13T16:30:25;-3.50;99.90
38860;DHT22;24609;48.316;16.174;2022-12-13T16:32:51;-3.50;99.90
38860;DHT22;24609;48.316;16.174;2022-12-13T16:35:18;-3.60;1.00
38860;DHT22;24609;48.316;16.174;2022-12-13T16:37:45;-3.70;1.00
38860;DHT22;24609;48.316;16.174;2022-12-13T16:40:24;-3.70;1.00
38860;DHT22;24609;48.316;16.174;2022-12-13T16:42:50;-3.80;1.00
38860;DHT22;24609;48.316;16.174;2022-12-13T16:45:16;-3.90;1.00
38860;DHT22;24609;48.316;16.174;2022-12-13T16:47:42;-4.00;1.00
38860;DHT22;24609;48.316;16.174;2022-12-13T16:50:16;-3.90;50.30
38860;DHT22;24609;48.316;16.174;2022-12-13T16:52:42;-3.90;25.20
38860;DHT22;24609;48.316;16.174;2022-12-13T16:55:08;-3.80;49.40
38860;DHT22;24609;48.316;16.174;2022-12-13T16:57:34;-3.80;23.20
38860;DHT22;24609;48.316;16.174;2022-12-13T17:00:00;-3.80;1.00
38860;DHT22;24609;48.316;16.174;2022-12-13T17:02:26;-3.80;1.00
38860;DHT22;24609;48.316;16.174;2022-12-13T17:04:51;-3.80;9.50
38860;DHT22;24609;48.316;16.174;2022-12-13T17:07:17;-3.80;2.90
38860;DHT22;24609;48.316;16.174;2022-12-13T17:09:43;-3.80;1.00
38860;DHT22;24609;48.316;16.174;2022-12-13T17:12:08;-4.00;1.00
38860;DHT22;24609;48.316;16.174;2022-12-13T17:14:34;-4.10;14.20
38860;DHT22;24609;48.316;16.174;2022-12-13T17:17:00;-4.20;14.00
38860;DHT22;24609;48.316;16.174;2022-12-13T17:19:25;-4.20;99.90
38860;DHT22;24609;48.316;16.174;2022-12-13T17:21:51;-4.20;99.90
38860;DHT22;24609;48.316;16.174;2022-12-13T17:24:17;-4.20;99.90
38860;DHT22;24609;48.316;16.174;2022-12-13T17:26:43;-4.30;99.90
38860;DHT22;24609;48.316;16.174;2022-12-13T17:29:09;-4.30;99.90
38860;DHT22;24609;48.316;16.174;2022-12-13T17:31:35;-4.20;99.90
38860;DHT22;24609;48.316;16.174;2022-12-13T17:34:00;-4.30;99.90
38860;DHT22;24609;48.316;16.174;2022-12-13T17:36:27;-4.20;99.90
38860;DHT22;24609;48.316;16.174;2022-12-13T17:38:53;-4.20;99.90
38860;DHT22;24609;48.316;16.174;2022-12-13T17:41:18;-4.30;99.90
38860;DHT22;24609;48.316;16.174;2022-12-13T17:43:44;-4.30;99.90
38860;DHT22;24609;48.316;16.174;2022-12-13T17:46:12;-4.20;99.90
38860;DHT22;24609;48.316;16.174;2022-12-13T17:48:39;-4.20;99.90
38860;DHT22;24609;48.316;16.174;2022-12-13T17:51:05;-4.10;99.90
38860;DHT22;24609;48.316;16.174;2022-12-13T17:53:31;-4.00;99.90
38860;DHT22;24609;48.316;16.174;2022-12-13T17:56:03;-4.00;99.90
38860;DHT22;24609;48.316;16.174;2022-12-13T17:58:30;-3.90;99.90
38860;DHT22;24609;48.316;16.174;2022-12-13T18:00:57;-3.90;85.20
38860;DHT22;24609;48.316;16.174;2022-12-13T18:03:23;-3.90;91.90
38860;DHT22;24609;48.316;16.174;2022-12-13T18:05:56;-4.00;91.00
38860;DHT22;24609;48.316;16.174;2022-12-13T18:08:22;-4.00;99.90